Time;durP1;ratioP1;P1;durP2;ratioP2;P2;SDS_P1;SDS_P2;PMS_P1;PMS_P2;Temp;Humidity;BMP_temperature;BMP_pressure;BME280_temperature;BME280_humidity;BME280_pressure;Samples;Min_cycle;Max_cycle;Signal;HPM_P1;HPM_P2
2022/02/19 00:00:29;;;;;;;4.97;1.40;;;;;;;6.84;62.33;98854.34;5046878;28;20605;-72
2022/02/19 00:02:54;;;;;;;5.37;1.40;;;;;;;6.75;63.16;98845.81;5048653;28;20193;-72
2022/02/19 00:05:21;;;;;;;10.33;2.07;;;;;;;6.75;63.97;98887.38;5047197;28;20622;-72
2022/02/19 00:07:46;;;;;;;8.17;2.00;;;;;;;6.66;64.84;98871.22;5049176;28;20277;-71
2022/02/19 00:10:13;;;;;;;10.47;2.27;;;;;;;6.69;65.02;98879.75;5048403;28;20314;-72
2022/02/19 00:12:38;;;;;;;12.23;2.00;;;;;;;6.66;65.69;98896.66;5047075;28;20250;-70
2022/02/19 00:15:05;;;;;;;10.90;2.17;;;;;;;6.62;65.57;98902.56;5048367;28;20190;-70
2022/02/19 00:17:30;;;;;;;7.57;2.20;;;;;;;6.54;66.40;98897.47;5047169;28;20189;-71
2022/02/19 00:19:56;;;;;;;10.07;1.90;;;;;;;6.58;65.82;98875.47;5047717;28;20228;-70
2022/02/19 00:22:22;;;;;;;12.83;2.33;;;;;;;6.58;65.61;98868.66;5048449;28;20240;-70
2022/02/19 00:24:47;;;;;;;7.27;1.80;;;;;;;6.50;68.16;98892.38;5052290;28;20197;-70
2022/02/19 00:27:13;;;;;;;10.93;2.27;;;;;;;6.49;66.66;98895.78;5051713;28;20684;-70
2022/02/19 00:29:38;;;;;;;11.10;1.90;;;;;;;6.52;66.98;98906.78;5050485;28;20276;-70
2022/02/19 00:32:05;;;;;;;8.03;2.13;;;;;;;6.54;67.04;98883.94;5051581;28;20224;-70
2022/02/19 00:34:30;;;;;;;9.10;1.63;;;;;;;6.50;66.95;98903.38;5051424;28;20205;-70
2022/02/19 00:36:55;;;;;;;6.53;1.87;;;;;;;6.56;66.45;98861.88;5052048;28;20190;-70
2022/02/19 00:39:22;;;;;;;7.37;2.20;;;;;;;6.61;65.66;98922.09;5050659;28;20293;-70
2022/02/19 00:41:47;;;;;;;8.30;2.30;;;;;;;6.47;67.55;98912.69;5051820;28;20209;-70
2022/02/19 00:44:13;;;;;;;7.33;1.80;;;;;;;6.51;67.72;98965.25;5051453;28;20194;-70
2022/02/19 00:46:38;;;;;;;7.90;1.93;;;;;;;6.50;67.00;98941.50;5051581;28;20202;-69
2022/02/19 00:49:04;;;;;;;7.27;2.10;;;;;;;6.40;67.55;98947.41;5051751;28;20211;-69
2022/02/19 00:51:31;;;;;;;8.20;2.00;;;;;;;6.35;67.94;98938.91;5049972;28;20201;-69
2022/02/19 00:53:57;;;;;;;7.20;3.07;;;;;;;6.33;68.82;98939.75;5051315;28;20523;-69
2022/02/19 00:56:23;;;;;;;10.37;2.63;;;;;;;6.30;68.93;98906.69;5051225;28;20194;-69
2022/02/19 00:58:48;;;;;;;8.40;2.67;;;;;;;6.30;69.07;98970.22;5049713;28;20293;-69
2022/02/19 01:01:14;;;;;;;9.17;1.90;;;;;;;6.24;69.39;98940.56;5049864;28;20787;-69
2022/02/19 01:03:52;;;;;;;8.83;2.27;;;;;;;6.18;69.65;98925.25;5049212;28;20185;-69
2022/02/19 01:06:19;;;;;;;9.63;2.50;;;;;;;6.24;68.74;98937.16;5051033;28;20192;-71
2022/02/19 01:08:45;;;;;;;11.93;1.97;;;;;;;6.19;69.51;98908.31;5051202;28;20284;-69
2022/02/19 01:11:11;;;;;;;7.40;1.67;;;;;;;6.20;68.96;98907.47;5048895;28;20206;-69
2022/02/19 01:13:36;;;;;;;8.23;1.93;;;;;;;6.16;69.69;98956.56;5048577;28;20193;-69
2022/02/19 01:16:02;;;;;;;8.73;2.13;;;;;;;6.17;69.27;98959.13;5049500;28;20633;-69
2022/02/19 01:18:27;;;;;;;10.23;2.17;;;;;;;6.18;69.75;98916.78;5051070;28;20194;-69
2022/02/19 01:20:52;;;;;;;8.43;2.37;;;;;;;6.26;68.90;98966.81;5050700;28;20224;-69
2022/02/19 01:23:18;;;;;;;9.13;2.17;;;;;;;6.22;69.45;98949.84;5049841;28;20210;-70
2022/02/19 01:25:43;;;;;;;5.40;1.80;;;;;;;6.18;70.25;98954.91;5050636;28;20189;-69
2022/02/19 01:28:08;;;;;;;8.63;1.53;;;;;;;6.16;70.18;98954.91;5048872;28;20189;-70
2022/02/19 01:30:34;;;;;;;6.90;1.93;;;;;;;6.11;70.64;98988.72;5049168;28;20643;-70
2022/02/19 01:33:01;;;;;;;9.13;1.70;;;;;;;5.91;74.38;98968.28;5029429;28;20742;-70
2022/02/19 01:35:30;;;;;;;6.13;1.53;;;;;;;5.82;75.05;98975.84;5047509;28;20686;-69
2022/02/19 01:37:56;;;;;;;8.43;1.80;;;;;;;5.81;74.51;98974.09;5050827;28;20210;-70
2022/02/19 01:40:22;;;;;;;10.43;2.17;;;;;;;5.82;74.05;98997.81;5048890;28;20642;-70
2022/02/19 01:42:48;;;;;;;14.20;2.13;;;;;;;5.71;76.14;98991.78;5048727;28;20189;-70
2022/02/19 01:45:15;;;;;;;11.27;2.77;;;;;;;5.72;75.95;98990.94;5032567;28;20738;-70
2022/02/19 01:47:41;;;;;;;9.30;2.10;;;;;;;5.63;75.99;99004.41;5048901;28;20572;-69
2022/02/19 01:50:10;;;;;;;12.20;2.07;;;;;;;5.56;77.08;98997.56;5048862;28;20209;-69
2022/02/19 01:52:40;;;;;;;8.80;1.90;;;;;;;5.52;77.30;99017.84;5032595;28;20189;-69
2022/02/19 01:55:09;;;;;;;8.67;2.07;;;;;;;5.47;78.95;99034.69;5048821;28;20247;-70
2022/02/19 01:57:45;;;;;;;9.27;2.00;;;;;;;5.36;80.49;99089.56;5048782;28;20182;-69
2022/02/19 02:00:24;;;;;;;6.50;2.37;;;;;;;5.04;83.66;99080.72;5048829;28;20951;-70
2022/02/19 02:03:02;;;;;;;10.33;2.60;;;;;;;4.89;87.21;99099.13;5048913;28;20265;-70
2022/02/19 02:05:47;;;;;;;10.57;2.43;;;;;;;4.33;93.05;99165.84;5034612;28;20235;-70
2022/02/19 02:08:14;;;;;;;10.10;2.27;;;;;;;4.22;94.04;99151.28;5048546;28;20278;-70
2022/02/19 02:10:44;;;;;;;9.60;2.20;;;;;;;4.33;94.42;99180.19;5048518;28;20205;-70
2022/02/19 02:13:16;;;;;;;8.20;1.83;;;;;;;4.22;93.03;99179.16;5047063;28;20190;-70
2022/02/19 02:15:41;;;;;;;6.20;2.30;;;;;;;4.07;93.45;99192.41;5048373;28;20194;-70
2022/02/19 02:18:15;;;;;;;9.13;2.83;;;;;;;4.04;94.34;99188.94;5048649;28;20186;-70
2022/02/19 02:20:41;;;;;;;9.50;2.27;;;;;;;3.86;97.32;99196.22;5048408;28;20767;-72
2022/02/19 02:23:08;;;;;;;10.27;2.37;;;;;;;3.72;99.90;99200.16;5048161;28;20182;-72
2022/02/19 02:25:34;;;;;;;8.10;2.27;;;;;;;3.66;100.00;99217.75;5048262;28;20269;-72
2022/02/19 02:28:04;;;;;;;6.67;2.03;;;;;;;3.76;100.00;99232.28;5048290;28;20189;-72
2022/02/19 02:30:30;;;;;;;6.80;1.90;;;;;;;3.86;99.16;99212.25;5048298;28;20218;-72
2022/02/19 02:33:12;;;;;;;4.80;1.43;;;;;;;3.96;96.86;99253.78;5047934;28;20189;-70
2022/02/19 02:35:39;;;;;;;4.30;1.60;;;;;;;4.01;96.65;99234.47;5047722;28;20191;-72
2022/02/19 02:38:06;;;;;;;7.23;1.50;;;;;;;4.00;95.42;99269.06;5048256;28;20356;-70
2022/02/19 02:40:32;;;;;;;4.33;1.37;;;;;;;4.03;95.32;99258.13;5048950;28;20229;-70
2022/02/19 02:43:01;;;;;;;5.20;1.23;;;;;;;4.09;94.73;99288.66;5049029;28;20284;-70
2022/02/19 02:45:26;;;;;;;5.53;1.40;;;;;;;4.12;94.51;99294.63;5047594;28;20296;-70
2022/02/19 02:47:52;;;;;;;3.40;1.10;;;;;;;4.20;93.10;99295.66;5048123;28;20205;-70
2022/02/19 02:50:17;;;;;;;5.47;1.30;;;;;;;4.26;93.22;99298.28;5047979;28;20198;-70
2022/02/19 02:52:43;;;;;;;8.27;1.47;;;;;;;4.36;92.75;99296.75;5047460;28;20714;-70
2022/02/19 02:55:11;;;;;;;5.03;1.20;;;;;;;4.34;92.89;99328.81;5047896;28;20189;-70
2022/02/19 02:57:37;;;;;;;5.73;1.20;;;;;;;4.31;92.84;99349.03;5031633;28;20185;-72
2022/02/19 03:00:08;;;;;;;5.70;1.20;;;;;;;4.30;92.54;99325.38;5047560;28;20203;-70
2022/02/19 03:02:38;;;;;;;6.00;2.17;;;;;;;4.29;92.85;99331.28;5047641;28;20670;-70
2022/02/19 03:05:07;;;;;;;4.60;1.20;;;;;;;4.28;92.61;99329.56;5047897;28;20196;-70
2022/02/19 03:07:34;;;;;;;4.27;1.20;;;;;;;4.24;93.39;99352.28;5048090;28;20197;-72
2022/02/19 03:10:00;;;;;;;4.47;1.63;;;;;;;4.26;92.97;99340.47;5047654;28;20217;-72
2022/02/19 03:12:27;;;;;;;4.50;1.63;;;;;;;4.28;92.66;99344.75;5047426;28;20182;-72
2022/02/19 03:14:53;;;;;;;7.00;1.63;;;;;;;4.31;93.02;99356.63;5047753;28;20189;-72
2022/02/19 03:17:19;;;;;;;4.73;1.97;;;;;;;4.32;92.90;99374.38;5047843;28;20656;-73
2022/02/19 03:19:45;;;;;;;8.03;1.50;;;;;;;4.41;92.36;99373.69;5046821;28;20217;-73
2022/02/19 03:22:12;;;;;;;9.13;2.17;;;;;;;4.51;91.62;99375.63;5047959;28;20185;-72
2022/02/19 03:24:38;;;;;;;6.83;2.17;;;;;;;4.58;91.05;99385.91;5047077;28;20186;-72
2022/02/19 03:27:05;;;;;;;7.50;1.67;;;;;;;4.59;91.43;99389.25;5047661;28;20189;-72
2022/02/19 03:29:31;;;;;;;4.53;1.40;;;;;;;4.59;91.69;99392.66;5047671;28;20243;-72
2022/02/19 03:31:57;;;;;;;9.40;2.07;;;;;;;4.65;90.80;99412.22;5047283;28;20182;-72
2022/02/19 03:34:25;;;;;;;7.23;1.83;;;;;;;4.67;89.74;99403.81;5046042;28;20561;-72
2022/02/19 03:36:51;;;;;;;8.57;1.90;;;;;;;4.66;90.37;99408.84;5047372;28;20190;-72
2022/02/19 03:39:17;;;;;;;8.80;2.10;;;;;;;4.65;90.22;99410.53;5030945;28;20668;-72
2022/02/19 03:41:42;;;;;;;7.33;1.67;;;;;;;4.60;90.95;99416.34;5047142;28;20206;-72
2022/02/19 03:44:09;;;;;;;7.17;1.50;;;;;;;4.64;90.50;99431.63;5047150;28;20182;-72
2022/02/19 03:46:41;;;;;;;8.97;1.63;;;;;;;4.61;90.34;99426.47;5047540;28;20186;-72
2022/02/19 03:49:27;;;;;;;7.33;1.70;;;;;;;4.62;89.97;99440.03;5047304;28;20188;-72
2022/02/19 03:51:53;;;;;;;8.43;1.43;;;;;;;4.68;90.13;99450.28;5046960;28;20185;-72
2022/02/19 03:54:19;;;;;;;11.00;2.00;;;;;;;4.71;89.52;99476.56;5046585;28;20232;-72
2022/02/19 03:56:47;;;;;;;11.40;2.10;;;;;;;4.79;89.60;99492.75;5047529;28;20217;-72
2022/02/19 03:59:14;;;;;;;6.93;2.03;;;;;;;4.77;90.53;99509.63;5050611;28;20218;-72
2022/02/19 04:01:41;;;;;;;10.73;2.33;;;;;;;4.77;91.17;99541.72;5050751;28;20840;-72
2022/02/19 04:04:11;;;;;;;12.17;2.50;;;;;;;4.73;91.45;99540.81;5050903;28;20269;-72
2022/02/19 04:06:37;;;;;;;9.60;2.30;;;;;;;4.72;92.29;99561.94;5050797;28;20596;-72
2022/02/19 04:09:03;;;;;;;14.63;2.60;;;;;;;4.67;92.94;99623.47;5050968;28;20194;-72
2022/02/19 04:11:29;;;;;;;13.27;2.50;;;;;;;4.11;96.12;99662.66;5049290;28;20198;-72
2022/02/19 04:13:55;;;;;;;3.33;1.10;;;;;;;3.56;94.77;99676.31;5050139;28;20564;-72
2022/02/19 04:16:26;;;;;;;1.23;0.70;;;;;;;3.42;94.05;99653.19;5050338;28;20227;-72
2022/02/19 04:18:54;;;;;;;3.97;0.90;;;;;;;3.48;94.50;99652.47;5049914;28;20273;-72
2022/02/19 04:21:20;;;;;;;6.53;1.10;;;;;;;3.50;95.06;99639.06;5051077;28;20209;-72
2022/02/19 04:23:45;;;;;;;2.73;1.00;;;;;;;3.68;93.47;99656.44;5050918;28;20185;-72
2022/02/19 04:26:12;;;;;;;5.03;1.30;;;;;;;3.57;94.06;99673.84;5051132;28;20220;-72
2022/02/19 04:28:43;;;;;;;4.17;1.10;;;;;;;3.78;93.51;99668.50;5051066;28;20185;-72
2022/02/19 04:31:12;;;;;;;4.43;0.97;;;;;;;3.84;92.52;99684.72;5050788;28;20213;-71
2022/02/19 04:33:38;;;;;;;1.93;0.93;;;;;;;3.85;92.65;99681.38;5034450;28;20533;-72
2022/02/19 04:36:04;;;;;;;2.70;0.90;;;;;;;3.78;93.05;99712.38;5034061;28;20214;-72
2022/02/19 04:38:33;;;;;;;1.83;0.70;;;;;;;3.73;92.77;99720.69;5050476;28;20630;-72
2022/02/19 04:40:58;;;;;;;2.83;0.70;;;;;;;3.73;93.64;99723.22;5050407;28;20293;-71
2022/02/19 04:43:24;;;;;;;3.97;0.83;;;;;;;3.81;93.55;99747.91;5050408;28;20264;-72
2022/02/19 04:45:50;;;;;;;4.00;0.87;;;;;;;3.88;93.74;99762.47;5050606;28;20194;-72
2022/02/19 04:48:16;;;;;;;7.13;1.40;;;;;;;3.93;94.35;99781.19;5050468;28;20240;-71
2022/02/19 04:50:45;;;;;;;6.67;1.57;;;;;;;3.97;94.16;99809.97;5050302;28;20202;-71
2022/02/19 04:53:10;;;;;;;7.87;2.00;;;;;;;3.91;94.18;99790.38;5050039;28;20190;-71
2022/02/19 04:55:36;;;;;;;7.87;1.67;;;;;;;3.94;95.51;99802.28;5050304;28;20193;-71
2022/02/19 04:58:17;;;;;;;4.13;1.63;;;;;;;4.01;94.19;99811.78;5051664;28;20192;-72
2022/02/19 05:00:43;;;;;;;9.57;1.30;;;;;;;4.04;93.06;99816.91;5050092;28;20307;-71
2022/02/19 05:03:28;;;;;;;5.67;1.27;;;;;;;4.06;92.42;99807.69;5051493;28;20256;-71
2022/02/19 05:06:32;;;;;;;10.90;1.60;;;;;;;3.97;91.51;99833.63;5028873;28;20194;-71
2022/02/19 05:09:01;;;;;;;5.30;0.80;;;;;;;3.89;91.79;99819.00;5011668;28;20596;-71
2022/02/19 05:11:30;;;;;;;2.57;0.63;;;;;;;3.89;92.20;99830.00;5029784;28;20355;-71
2022/02/19 05:13:57;;;;;;;4.17;0.97;;;;;;;3.84;92.41;99821.44;5049678;28;20269;-72
2022/02/19 05:16:22;;;;;;;2.67;0.80;;;;;;;3.91;90.93;99845.25;5049897;28;20284;-72
2022/02/19 05:19:03;;;;;;;2.97;0.80;;;;;;;3.92;91.37;99849.50;5044304;28;20239;-72
2022/02/19 05:21:34;;;;;;;4.17;0.83;;;;;;;3.91;91.92;99868.88;5067129;28;20202;-72
2022/02/19 05:24:02;;;;;;;2.83;0.87;;;;;;;3.80;92.23;99876.97;5049567;28;20655;-71
2022/02/19 05:26:36;;;;;;;3.80;1.00;;;;;;;3.81;92.40;99874.47;5049786;28;20205;-72
2022/02/19 05:29:04;;;;;;;8.90;1.27;;;;;;;3.80;93.57;99894.69;5049725;28;20185;-72
2022/02/19 05:31:30;;;;;;;6.30;1.20;;;;;;;3.87;93.06;99901.66;5051055;28;20259;-72
2022/02/19 05:34:07;;;;;;;6.73;1.30;;;;;;;3.88;93.21;99900.84;5049654;28;20281;-72
2022/02/19 05:36:33;;;;;;;6.20;1.20;;;;;;;3.93;92.77;99895.13;5049723;28;20628;-72
2022/02/19 05:39:02;;;;;;;8.87;1.60;;;;;;;3.96;92.63;99905.31;5049531;28;20184;-72
2022/02/19 05:41:30;;;;;;;6.57;1.30;;;;;;;3.96;92.57;99909.53;5049504;28;20312;-72
2022/02/19 05:44:00;;;;;;;8.70;1.30;;;;;;;4.02;91.40;99919.84;5049285;28;20266;-71
2022/02/19 05:46:25;;;;;;;7.20;1.33;;;;;;;4.03;91.21;99924.97;5049460;28;20582;-72
2022/02/19 05:48:51;;;;;;;7.73;1.30;;;;;;;4.08;91.09;99928.50;5049385;28;20189;-72
2022/02/19 05:51:23;;;;;;;3.53;1.13;;;;;;;4.07;91.47;99941.09;5049134;28;20217;-72
2022/02/19 05:53:55;;;;;;;5.27;1.37;;;;;;;4.09;91.37;99955.53;5049099;28;20268;-72
2022/02/19 05:56:20;;;;;;;5.67;1.17;;;;;;;4.07;92.14;99959.69;5032627;28;20193;-71
2022/02/19 05:58:47;;;;;;;5.50;1.10;;;;;;;4.05;92.00;99965.53;5032729;28;20178;-71
2022/02/19 06:01:16;;;;;;;4.97;1.10;;;;;;;4.05;92.17;99979.03;5049134;28;20210;-72
2022/02/19 06:03:46;;;;;;;7.63;1.13;;;;;;;4.04;92.52;99976.44;5048899;28;20228;-72
2022/02/19 06:06:15;;;;;;;4.00;0.90;;;;;;;4.02;92.67;100001.75;5048863;28;20186;-72
2022/02/19 06:08:42;;;;;;;3.53;0.93;;;;;;;4.01;93.40;100002.53;5048909;28;20245;-72
2022/02/19 06:11:08;;;;;;;3.53;1.13;;;;;;;3.92;93.94;100016.59;5049124;28;20224;-72
2022/02/19 06:13:53;;;;;;;6.13;0.90;;;;;;;3.77;94.83;100031.31;5049307;28;20200;-71
2022/02/19 06:16:19;;;;;;;3.23;0.87;;;;;;;3.78;95.54;100045.66;5048755;28;20209;-72
2022/02/19 06:18:57;;;;;;;2.63;0.80;;;;;;;3.73;95.91;100059.84;5048464;28;20200;-71
2022/02/19 06:21:22;;;;;;;2.03;0.90;;;;;;;3.71;95.19;100067.38;5047549;28;20691;-72
2022/02/19 06:23:48;;;;;;;1.03;0.53;;;;;;;3.68;94.93;100064.75;5048539;28;20201;-72
2022/02/19 06:26:13;;;;;;;3.03;0.70;;;;;;;3.71;95.08;100082.56;5048740;28;20197;-72
2022/02/19 06:28:58;;;;;;;2.53;0.73;;;;;;;3.70;95.24;100074.91;5048521;28;20273;-71
2022/02/19 06:31:24;;;;;;;1.33;0.50;;;;;;;3.71;94.43;100100.28;5048403;28;20359;-72
2022/02/19 06:33:49;;;;;;;1.13;0.40;;;;;;;3.72;95.28;100106.22;5048422;28;20284;-72
2022/02/19 06:36:16;;;;;;;1.63;0.67;;;;;;;3.59;95.93;100127.69;5048385;28;20694;-72
2022/02/19 06:38:42;;;;;;;2.00;0.70;;;;;;;3.51;95.15;100119.00;5048427;28;20193;-72
2022/02/19 06:41:10;;;;;;;4.13;0.80;;;;;;;3.55;95.24;100125.84;5048298;28;20267;-72
2022/02/19 06:43:49;;;;;;;2.77;0.70;;;;;;;3.52;95.72;100130.84;5048196;28;20192;-72
2022/02/19 06:46:18;;;;;;;5.63;1.63;;;;;;;3.48;95.82;100151.75;5048430;28;20186;-71
2022/02/19 06:48:43;;;;;;;3.53;1.00;;;;;;;3.46;97.09;100170.22;5049905;28;20816;-71
2022/02/19 06:51:10;;;;;;;3.00;0.93;;;;;;;3.42;96.68;100178.50;5048374;28;20233;-71
2022/02/19 06:53:37;;;;;;;2.77;0.90;;;;;;;3.30;97.38;100194.09;5048290;28;20217;-71
2022/02/19 06:56:03;;;;;;;5.20;1.23;;;;;;;3.29;96.81;100205.03;5048239;28;20268;-72
2022/02/19 06:58:30;;;;;;;3.63;0.73;;;;;;;3.28;97.33;100203.31;5048187;28;20256;-71
2022/02/19 07:00:59;;;;;;;3.30;1.00;;;;;;;3.25;96.84;100220.88;5048028;28;20221;-72
2022/02/19 07:03:24;;;;;;;3.73;0.93;;;;;;;3.16;96.80;100220.53;5047989;28;20277;-72
2022/02/19 07:05:55;;;;;;;3.60;0.50;;;;;;;3.10;96.81;100230.44;5048073;28;20200;-72
2022/02/19 07:08:36;;;;;;;2.20;0.80;;;;;;;3.07;95.68;100235.34;5048005;28;20193;-72
2022/02/19 07:11:03;;;;;;;2.73;0.77;;;;;;;3.10;96.62;100248.13;5047954;28;20202;-72
2022/02/19 07:13:29;;;;;;;2.80;0.60;;;;;;;3.01;96.76;100244.38;5048937;28;20292;-71
2022/02/19 07:15:54;;;;;;;2.77;0.50;;;;;;;3.00;96.63;100256.16;5047844;28;20272;-71
2022/02/19 07:18:58;;;;;;;3.23;0.63;;;;;;;2.98;96.31;100270.41;5045431;28;20201;-72
2022/02/19 07:21:24;;;;;;;1.73;0.60;;;;;;;3.01;96.43;100280.63;5031282;28;20209;-70
2022/02/19 07:23:51;;;;;;;2.67;0.60;;;;;;;3.04;96.68;100306.03;5047797;28;20272;-70
2022/02/19 07:26:20;;;;;;;2.27;0.70;;;;;;;2.93;96.41;100316.50;5032041;28;20213;-70
2022/02/19 07:28:49;;;;;;;1.83;0.70;;;;;;;2.67;95.77;100325.53;5046810;28;20280;-70
2022/02/19 07:31:14;;;;;;;2.93;0.90;;;;;;;2.41;96.22;100322.72;5047169;28;20383;-70
2022/02/19 07:33:40;;;;;;;6.23;1.33;;;;;;;2.46;95.94;100312.03;5034982;28;20259;-70
2022/02/19 07:36:08;;;;;;;3.27;1.00;;;;;;;2.46;95.49;100327.19;5051724;28;20186;-70
2022/02/19 07:38:36;;;;;;;3.27;1.20;;;;;;;2.51;95.72;100320.66;5051785;28;20186;-70
2022/02/19 07:41:01;;;;;;;6.43;1.00;;;;;;;2.62;95.71;100321.13;5051582;28;20727;-70
2022/02/19 07:43:52;;;;;;;2.77;0.93;;;;;;;2.69;96.04;100336.59;5051608;28;20290;-70
2022/02/19 07:46:34;;;;;;;4.33;1.53;;;;;;;2.70;96.33;100327.34;5051729;28;20197;-70
2022/02/19 07:58:25;;;;;;;6.97;1.30;;;;;;;3.55;96.17;100335.88;5051827;28;20719;-70
2022/02/19 08:00:54;;;;;;;6.97;1.10;;;;;;;3.71;95.37;100332.28;5051586;28;20237;-70
2022/02/19 08:03:22;;;;;;;2.00;1.00;;;;;;;3.83;95.05;100348.81;5051401;28;20193;-70
2022/02/19 08:05:55;;;;;;;4.93;1.10;;;;;;;3.96;94.69;100340.84;5051537;28;20180;-70
2022/02/19 08:08:22;;;;;;;2.83;0.80;;;;;;;4.18;94.39;100357.72;5051555;28;20847;-70
2022/02/19 08:10:47;;;;;;;4.03;0.90;;;;;;;4.30;93.02;100353.97;5051471;28;20201;-70
2022/02/19 08:13:19;;;;;;;3.83;1.27;;;;;;;4.64;91.83;100358.53;5052470;28;20293;-70
2022/02/19 08:15:45;;;;;;;5.43;0.90;;;;;;;4.80;90.41;100356.59;5044766;28;20182;-70
2022/02/19 08:18:11;;;;;;;7.30;1.17;;;;;;;5.22;90.06;100364.75;5052306;28;20189;-67
2022/02/19 08:20:39;;;;;;;3.17;0.90;;;;;;;5.54;89.38;100375.13;5052644;28;20221;-68
2022/02/19 08:23:07;;;;;;;5.33;1.10;;;;;;;5.75;87.19;100383.41;5052304;28;20205;-68
2022/02/19 08:25:33;;;;;;;3.60;1.00;;;;;;;5.39;86.38;100387.31;5052368;28;20210;-70
2022/02/19 08:27:59;;;;;;;2.13;0.80;;;;;;;5.43;85.63;100393.38;5050990;28;20185;-70
2022/02/19 08:30:24;;;;;;;2.47;0.70;;;;;;;5.59;85.15;100399.00;5048066;28;21070;-70
2022/02/19 08:32:50;;;;;;;4.40;0.93;;;;;;;5.66;83.93;100394.97;5051943;28;20221;-70
2022/02/19 08:35:16;;;;;;;2.43;0.70;;;;;;;5.80;83.46;100426.75;5052446;28;20272;-70
2022/02/19 08:37:41;;;;;;;1.23;0.40;;;;;;;5.80;85.44;100441.97;5052398;28;20670;-70
2022/02/19 08:40:12;;;;;;;2.20;0.87;;;;;;;5.46;85.61;100457.78;5052124;28;20218;-70
2022/02/19 08:42:38;;;;;;;2.30;0.60;;;;;;;5.47;86.33;100461.19;5052050;28;20229;-70
2022/02/19 08:45:05;;;;;;;2.93;0.53;;;;;;;5.21;86.72;100475.53;5051077;28;20221;-70
2022/02/19 08:47:30;;;;;;;1.63;0.40;;;;;;;5.22;87.26;100479.81;5050414;28;20273;-70
2022/02/19 08:49:56;;;;;;;3.57;0.63;;;;;;;5.00;86.86;100494.22;5051770;28;20292;-70
2022/02/19 08:52:22;;;;;;;3.63;0.70;;;;;;;4.96;87.75;100505.06;5051884;28;20182;-70
2022/02/19 08:54:47;;;;;;;1.77;0.60;;;;;;;4.92;87.90;100511.72;5050314;28;20687;-70
2022/02/19 08:57:12;;;;;;;1.03;0.50;;;;;;;4.87;87.86;100515.75;5050565;28;20674;-70
2022/02/19 08:59:38;;;;;;;2.00;0.33;;;;;;;5.04;87.93;100523.97;5051520;28;20209;-70
2022/02/19 09:02:03;;;;;;;1.87;0.47;;;;;;;5.02;87.84;100523.06;5051396;28;20173;-70
2022/02/19 09:04:29;;;;;;;1.17;0.50;;;;;;;5.11;87.58;100526.78;5051617;28;20223;-70
2022/02/19 09:06:54;;;;;;;1.43;0.70;;;;;;;5.16;87.52;100534.56;5051552;28;20297;-70
2022/02/19 09:09:19;;;;;;;0.40;0.40;;;;;;;5.17;87.29;100546.44;5051348;28;20200;-70
2022/02/19 09:11:45;;;;;;;0.73;0.23;;;;;;;5.08;87.29;100553.72;5049821;28;20293;-70
2022/02/19 09:14:10;;;;;;;0.33;0.33;;;;;;;5.12;87.51;100560.63;5051040;28;20190;-70
2022/02/19 09:16:37;;;;;;;0.30;0.30;;;;;;;5.06;87.61;100563.81;5049677;28;20284;-70
2022/02/19 09:19:04;;;;;;;0.33;0.30;;;;;;;5.05;87.90;100564.63;5050796;28;20607;-70
2022/02/19 09:21:30;;;;;;;0.40;0.30;;;;;;;4.96;87.53;100579.50;5051094;28;20208;-70
2022/02/19 09:23:55;;;;;;;1.17;0.30;;;;;;;5.04;87.48;100573.03;5049666;28;20193;-70
2022/02/19 09:26:21;;;;;;;1.47;0.50;;;;;;;4.79;88.19;100595.75;5051051;28;20552;-70
2022/02/19 09:28:47;;;;;;;0.87;0.37;;;;;;;4.56;89.39;100626.97;5051092;28;20273;-70
2022/02/19 09:31:13;;;;;;;0.40;0.40;;;;;;;4.44;89.40;100608.75;5051022;28;20204;-70
2022/02/19 09:33:39;;;;;;;1.57;0.70;;;;;;;4.32;90.80;100615.84;5050893;28;20200;-70
2022/02/19 09:36:04;;;;;;;2.37;0.80;;;;;;;4.11;92.38;100621.72;5051118;28;20720;-70
2022/02/19 09:38:30;;;;;;;1.87;1.00;;;;;;;4.08;92.51;100616.53;5050907;28;20186;-70
2022/02/19 09:40:57;;;;;;;1.80;0.60;;;;;;;4.15;92.39;100621.91;5050669;28;20221;-70
2022/02/19 09:43:23;;;;;;;3.00;0.63;;;;;;;4.24;91.40;100626.50;5050730;28;20178;-70
2022/02/19 09:45:49;;;;;;;1.93;0.67;;;;;;;4.21;91.62;100639.91;5050751;28;20228;-70
2022/02/19 09:48:16;;;;;;;2.17;0.80;;;;;;;4.26;92.42;100648.56;5050740;28;20232;-70
2022/02/19 09:50:44;;;;;;;3.67;1.27;;;;;;;4.25;92.31;100651.03;5050588;28;20553;-70
2022/02/19 09:53:09;;;;;;;4.53;1.13;;;;;;;4.32;92.19;100658.94;5050350;28;20185;-72
2022/02/19 09:55:36;;;;;;;4.70;0.80;;;;;;;4.30;91.93;100658.03;5049212;28;20220;-70
2022/02/19 09:58:02;;;;;;;4.90;1.37;;;;;;;4.25;92.29;100658.63;5050651;28;20197;-70
2022/02/19 10:00:43;;;;;;;5.23;1.20;;;;;;;4.30;91.46;100672.34;5050145;28;20296;-69
2022/02/19 10:03:21;;;;;;;7.33;1.30;;;;;;;4.57;91.63;100676.00;5048880;28;20194;-72
2022/02/19 10:05:46;;;;;;;3.13;1.00;;;;;;;4.83;91.39;100678.75;5050243;28;20579;-70
2022/02/19 10:08:12;;;;;;;4.13;1.17;;;;;;;4.89;90.39;100681.56;5050154;28;20185;-70
2022/02/19 10:10:41;;;;;;;2.57;0.77;;;;;;;4.97;90.39;100690.31;5050164;28;20277;-70
2022/02/19 10:13:06;;;;;;;4.87;0.93;;;;;;;5.46;87.80;100681.22;5050016;28;20205;-71
2022/02/19 10:15:47;;;;;;;5.33;1.20;;;;;;;5.60;86.85;100690.19;5050168;28;20799;-70
2022/02/19 10:18:30;;;;;;;3.33;1.30;;;;;;;5.43;86.94;100698.84;5049661;28;20239;-70
2022/02/19 10:21:17;;;;;;;6.93;1.33;;;;;;;5.74;86.41;100693.22;5050126;28;20248;-71
2022/02/19 10:23:46;;;;;;;5.87;1.57;;;;;;;5.73;86.52;100710.16;5049933;28;20197;-70
2022/02/19 10:26:13;;;;;;;6.53;1.87;;;;;;;5.71;86.66;100704.13;5049451;28;20245;-70
2022/02/19 10:28:38;;;;;;;2.97;1.33;;;;;;;6.32;84.55;100702.09;5050005;28;20269;-70
2022/02/19 10:31:14;;;;;;;6.53;1.70;;;;;;;5.44;86.47;100712.44;5049740;28;20500;-71
2022/02/19 10:33:39;;;;;;;6.33;2.00;;;;;;;5.67;85.89;100711.59;5049731;28;20185;-71
2022/02/19 10:36:12;;;;;;;10.20;1.87;;;;;;;5.43;86.69;100724.25;5050030;28;20668;-71
2022/02/19 10:38:58;;;;;;;7.77;1.90;;;;;;;5.59;86.94;100731.63;5049811;28;20228;-71
2022/02/19 10:41:39;;;;;;;6.10;1.80;;;;;;;5.47;86.31;100741.31;5050120;28;20236;-70
2022/02/19 10:44:22;;;;;;;6.23;2.13;;;;;;;5.44;87.03;100733.59;5032010;28;20185;-71
2022/02/19 10:46:48;;;;;;;9.27;2.60;;;;;;;5.31;87.80;100733.94;5050198;28;20208;-70
2022/02/19 10:49:13;;;;;;;8.27;2.10;;;;;;;5.41;87.22;100740.22;5049609;28;20583;-70
2022/02/19 10:51:40;;;;;;;12.43;1.90;;;;;;;5.47;88.14;100741.31;5049546;28;20803;-71
2022/02/19 10:54:08;;;;;;;8.57;1.90;;;;;;;5.52;88.50;100747.44;5049510;28;20193;-71
2022/02/19 10:56:34;;;;;;;6.73;2.00;;;;;;;6.57;85.70;100742.78;5049780;28;21040;-71
2022/02/19 10:59:08;;;;;;;5.43;1.97;;;;;;;8.09;79.78;100727.94;5049568;28;20192;-70
2022/02/19 11:01:43;;;;;;;6.77;1.60;;;;;;;8.53;77.23;100732.56;5048054;28;20708;-71
2022/02/19 11:04:10;;;;;;;6.20;1.90;;;;;;;11.23;64.39;100717.66;5049332;28;20633;-70
2022/02/19 11:06:37;;;;;;;6.83;1.93;;;;;;;12.34;60.90;100708.81;5048867;28;20182;-71
2022/02/19 11:09:05;;;;;;;5.70;2.00;;;;;;;13.50;55.45;100710.63;5049299;28;20185;-71
2022/02/19 11:11:33;;;;;;;6.40;1.70;;;;;;;13.20;55.94;100717.28;5049376;28;20289;-71
2022/02/19 11:13:59;;;;;;;5.47;2.00;;;;;;;11.88;59.96;100732.25;5042939;28;20181;-71
2022/02/19 11:16:24;;;;;;;7.47;1.80;;;;;;;10.15;65.75;100746.53;5049105;28;20197;-70
2022/02/19 11:18:50;;;;;;;5.43;1.97;;;;;;;9.38;68.12;100754.22;5049145;28;20186;-71
2022/02/19 11:21:16;;;;;;;6.30;1.50;;;;;;;8.54;70.25;100757.25;5049083;28;20298;-71
2022/02/19 11:23:46;;;;;;;5.30;1.70;;;;;;;8.89;69.40;100766.69;5049042;28;20300;-71
2022/02/19 11:26:12;;;;;;;5.97;1.80;;;;;;;8.27;71.84;100767.63;5046308;28;20272;-71
2022/02/19 11:28:38;;;;;;;6.97;1.63;;;;;;;8.34;71.43;100764.38;5048974;28;20209;-68
2022/02/19 11:31:06;;;;;;;5.30;1.67;;;;;;;8.78;71.24;100770.66;5048915;28;20267;-70
2022/02/19 11:33:36;;;;;;;3.43;1.40;;;;;;;8.00;72.17;100794.84;5048861;28;20676;-71
2022/02/19 11:36:06;;;;;;;4.83;1.70;;;;;;;8.02;72.11;100789.81;5047654;28;20640;-71
2022/02/19 11:38:35;;;;;;;6.77;1.50;;;;;;;8.40;70.21;100779.88;5049121;28;20193;-71
2022/02/19 11:41:03;;;;;;;5.10;2.10;;;;;;;9.80;66.90;100785.84;5048643;28;20213;-71
2022/02/19 11:43:39;;;;;;;6.13;1.60;;;;;;;8.61;69.16;100798.28;5048762;28;20277;-70
2022/02/19 11:46:14;;;;;;;8.83;1.80;;;;;;;7.81;71.54;100804.47;5049151;28;20194;-70
2022/02/19 11:48:47;;;;;;;5.90;1.30;;;;;;;7.42;72.58;100806.66;5048997;28;20738;-70
2022/02/19 11:51:17;;;;;;;3.10;1.30;;;;;;;7.86;71.63;100803.78;5047612;28;20201;-70